Snelling, CA (95369)

17:15 PDT le 25 octobre 2014 (GMT -0700)
Castle | Change Station
CLOSE
Current Station
Aéroport
Location: Atwater,
Altitude: 187 ft
Stations météo à proximité

Alt. 187 ft 37.38 °N, 120.57 °W | Updated 30 minutes ago

Couvert
Couvert
64 ° F
Paraît 64 ° F
N
16
Vent Variable Vent de NE

Aujourd'hui
Haut(e) -- | Bas -- ° F
--% Risque de précip.
Hier
Haut(e) -- | Bas -- ° F
Precip. -- pouce
7:19 AM 6:11 PM
Lune montante, 5% visible
Pression 30.08 pouce
Visibilité 10.0 Miles terrestres
Nuages Nuages épars 6000 ft
Point de rosée 64 ° F
Humidité 100%
Précipitations 0.00 pouce
Profondeur de la couche neigeuse Non disponible.
UV 1 sur 12
Pollen 2.00 sur 12
Qualité de l'air Non disponible.
Flu Activity Sporadic
METAR KMER 252345Z 04014KT 10SM SCT060 18/18 A3008

More Conditions Fewer Conditions

Pression 30.08 pouce
Visibilité 10.0 Miles terrestres
Nuages Nuages épars 6000 ft
Point de rosée 64 ° F
Humidité 100%
Précipitations 0.00 pouce
Profondeur de la couche neigeuse Non disponible.
UV 1 sur 12
Pollen 2.00 sur 12
Qualité de l'air Non disponible.
Flu Activity Sporadic
METAR KMER 252345Z 04014KT 10SM SCT060 18/18 A3008

More Conditions Fewer Conditions

10-Day Weather Forecast

Almanac

Astronomie

Oct. 25, 2014 Lever Coucher
Temps réel 07:19 PDT 18:11 PDT
Crépuscule civil 06:53 PDT 18:38 PDT
Crépuscule nautique 06:22 PDT 19:08 PDT
Crépuscule astronomique 05:52 PDT 19:39 PDT
Lune 09:02 PDT (10/25) 19:40 PDT (10/25)
Durée de lumière visible 11h 45m
Longueur du jour
10h 51m
Tomorrow will be 2m 12s shorter.
Lune montante, 5% of the Moon is Illuminated
Aujourd'hui
Lune montante
Oct 30
Premier quartier
Nov 6
Pleine lune
Nov 14
Dernier quartier
Nov 22
Nouveau

Extrêmes aujourd'hui

State Highs State Lows

Community

WunderPhotos

Upload Photos

1,765,039 Photos téléchargées !

Nearby

Qualité de l'air

  Qualité de l'air Indice de la qualité de l'air Polluant
samedi Moyen
PM10
dimanche Bon
OZONE
lundi Bon
OZONE
mardi Bon
OZONE
mercredi Bon
OZONE
jeudi Bon
OZONE

Épaisseur de neige

Station Depth Altitude
Leavitt Lake 0 in 9400 ft
Sonora Pass 0 in 8800 ft
Leavitt Meadows 0 in 7200 ft
Virginia Lakes Ridge 0 in 9200 ft
Summit Meadow 0 in 9122 ft

Activité sismique

Ville Distance Mag. Time & Date
Antioch, California 82 Miles terrestres 2.7 06:42 PDT
2014-10-25
Deer Park, California 128 Miles terrestres 2.8 06:40 PDT
2014-10-25
Coalinga, California 106 Miles terrestres 2.5 23:01 PDT
2014-10-24
Kettleman City, California 120 Miles terrestres 2.5 09:08 PDT
2014-10-22
Minimum magnitude displayed is 2.5.

Températures des eaux côtières

Lieu Température
Aucun rapport de station

Stations météo à proximité